sensor_id;sensor_type;location;lat;lon;timestamp;pressure;altitude;pressure_sealevel;temperature;humidity
62548;BME280;48602;45.192;5.722;2022-11-27T00:01:14;100446.69;;;6.09;82.66
62548;BME280;48602;45.192;5.722;2022-11-27T00:03:41;100457.16;;;6.09;82.68
62548;BME280;48602;45.192;5.722;2022-11-27T00:06:07;100454.53;;;6.07;82.93
62548;BME280;48602;45.192;5.722;2022-11-27T00:08:36;100451.03;;;6.07;82.94
62548;BME280;48602;45.192;5.722;2022-11-27T00:11:09;100444.94;;;6.06;82.92
62548;BME280;48602;45.192;5.722;2022-11-27T00:13:35;100450.16;;;6.05;82.78
62548;BME280;48602;45.192;5.722;2022-11-27T00:16:00;100443.22;;;6.02;82.87
62548;BME280;48602;45.192;5.722;2022-11-27T00:18:26;100436.22;;;6.01;82.78
62548;BME280;48602;45.192;5.722;2022-11-27T00:20:51;100442.34;;;5.99;83.07
62548;BME280;48602;45.192;5.722;2022-11-27T00:23:17;100437.09;;;5.97;83.03
62548;BME280;48602;45.192;5.722;2022-11-27T00:25:51;100429.25;;;5.97;82.91
62548;BME280;48602;45.192;5.722;2022-11-27T00:28:16;100429.25;;;5.95;83.07
62548;BME280;48602;45.192;5.722;2022-11-27T00:30:42;100423.13;;;5.93;83.10
62548;BME280;48602;45.192;5.722;2022-11-27T00:33:07;100425.75;;;5.92;82.96
62548;BME280;48602;45.192;5.722;2022-11-27T00:35:33;100422.25;;;5.90;83.01
62548;BME280;48602;45.192;5.722;2022-11-27T00:37:58;100423.09;;;5.87;83.11
62548;BME280;48602;45.192;5.722;2022-11-27T00:40:23;100426.59;;;5.86;82.93
62548;BME280;48602;45.192;5.722;2022-11-27T00:42:49;100420.50;;;5.86;83.07
62548;BME280;48602;45.192;5.722;2022-11-27T00:45:14;100420.50;;;5.84;83.16
62548;BME280;48602;45.192;5.722;2022-11-27T00:47:40;100415.25;;;5.81;82.90
62548;BME280;48602;45.192;5.722;2022-11-27T00:50:06;100425.72;;;5.80;82.99
62548;BME280;48602;45.192;5.722;2022-11-27T00:52:31;100440.53;;;5.78;82.80
62548;BME280;48602;45.192;5.722;2022-11-27T00:54:56;100437.91;;;5.75;82.79
62548;BME280;48602;45.192;5.722;2022-11-27T00:57:22;100437.91;;;5.73;82.89
62548;BME280;48602;45.192;5.722;2022-11-27T00:59:47;100437.91;;;5.73;83.07
62548;BME280;48602;45.192;5.722;2022-11-27T01:02:13;100428.31;;;5.72;83.05
62548;BME280;48602;45.192;5.722;2022-11-27T01:04:39;100410.88;;;5.71;83.26
62548;BME280;48602;45.192;5.722;2022-11-27T01:07:04;100395.22;;;5.70;83.11
62548;BME280;48602;45.192;5.722;2022-11-27T01:09:29;100379.50;;;5.70;82.97
62548;BME280;48602;45.192;5.722;2022-11-27T01:11:55;100376.03;;;5.68;83.17
62548;BME280;48602;45.192;5.722;2022-11-27T01:14:20;100383.88;;;5.66;83.63
62548;BME280;48602;45.192;5.722;2022-11-27T01:16:45;100388.22;;;5.66;83.67
62548;BME280;48602;45.192;5.722;2022-11-27T01:19:12;100390.84;;;5.66;83.86
62548;BME280;48602;45.192;5.722;2022-11-27T01:21:37;100390.84;;;5.64;83.56
62548;BME280;48602;45.192;5.722;2022-11-27T01:24:04;100396.94;;;5.63;83.71
62548;BME280;48602;45.192;5.722;2022-11-27T01:26:30;100385.59;;;5.59;83.59
62548;BME280;48602;45.192;5.722;2022-11-27T01:28:56;100369.03;;;5.57;83.59
62548;BME280;48602;45.192;5.722;2022-11-27T01:31:25;100365.53;;;5.55;83.77
62548;BME280;48602;45.192;5.722;2022-11-27T01:33:53;100367.28;;;5.53;83.78
62548;BME280;48602;45.192;5.722;2022-11-27T01:36:19;100356.84;;;5.52;83.89
62548;BME280;48602;45.192;5.722;2022-11-27T01:38:44;100364.69;;;5.50;83.93
62548;BME280;48602;45.192;5.722;2022-11-27T01:41:18;100378.63;;;5.51;83.97
62548;BME280;48602;45.192;5.722;2022-11-27T01:43:49;100381.25;;;5.51;84.17
62548;BME280;48602;45.192;5.722;2022-11-27T01:46:54;100388.22;;;5.52;84.23
62548;BME280;48602;45.192;5.722;2022-11-27T01:51:47;100377.75;;;5.52;84.10
62548;BME280;48602;45.192;5.722;2022-11-27T01:54:15;100383.88;;;5.51;83.94
62548;BME280;48602;45.192;5.722;2022-11-27T01:56:42;100374.28;;;5.48;84.01
62548;BME280;48602;45.192;5.722;2022-11-27T01:59:10;100381.25;;;5.48;84.34
62548;BME280;48602;45.192;5.722;2022-11-27T02:01:36;100380.38;;;5.46;84.15
62548;BME280;48602;45.192;5.722;2022-11-27T02:04:02;100384.72;;;5.42;84.32
62548;BME280;48602;45.192;5.722;2022-11-27T02:06:28;100387.31;;;5.41;84.38
62548;BME280;48602;45.192;5.722;2022-11-27T02:08:54;100380.34;;;5.40;84.13
62548;BME280;48602;45.192;5.722;2022-11-27T02:11:38;100382.13;;;5.36;84.39
62548;BME280;48602;45.192;5.722;2022-11-27T02:14:31;100378.63;;;5.33;84.28
62548;BME280;48602;45.192;5.722;2022-11-27T02:19:57;100377.72;;;5.29;84.63
62548;BME280;48602;45.192;5.722;2022-11-27T02:30:51;100359.44;;;5.28;85.17
62548;BME280;48602;45.192;5.722;2022-11-27T02:33:20;100362.91;;;5.30;85.09
62548;BME280;48602;45.192;5.722;2022-11-27T02:35:55;100376.88;;;5.30;85.03
62548;BME280;48602;45.192;5.722;2022-11-27T02:38:58;100373.38;;;5.31;85.10
62548;BME280;48602;45.192;5.722;2022-11-27T02:41:28;100370.78;;;5.31;85.44
62548;BME280;48602;45.192;5.722;2022-11-27T02:43:56;100368.16;;;5.31;85.52
62548;BME280;48602;45.192;5.722;2022-11-27T02:46:23;100356.81;;;5.31;85.52
62548;BME280;48602;45.192;5.722;2022-11-27T02:48:54;100367.28;;;5.31;85.67
62548;BME280;48602;45.192;5.722;2022-11-27T02:51:25;100366.41;;;5.32;85.68
62548;BME280;48602;45.192;5.722;2022-11-27T02:53:55;100361.19;;;5.33;85.74
62548;BME280;48602;45.192;5.722;2022-11-27T02:56:25;100364.69;;;5.34;85.52
62548;BME280;48602;45.192;5.722;2022-11-27T02:58:55;100364.66;;;5.31;85.33
62548;BME280;48602;45.192;5.722;2022-11-27T03:01:22;100369.00;;;5.27;85.24
62548;BME280;48602;45.192;5.722;2022-11-27T03:03:52;100369.88;;;5.23;85.15
62548;BME280;48602;45.192;5.722;2022-11-27T03:06:27;100364.63;;;5.20;84.97
62548;BME280;48602;45.192;5.722;2022-11-27T03:09:02;100364.66;;;5.17;85.21
62548;BME280;48602;45.192;5.722;2022-11-27T03:11:30;100380.31;;;5.14;85.36
62548;BME280;48602;45.192;5.722;2022-11-27T03:13:59;100381.19;;;5.11;85.11
62548;BME280;48602;45.192;5.722;2022-11-27T03:16:38;100377.69;;;5.09;85.34
62548;BME280;48602;45.192;5.722;2022-11-27T03:21:54;100383.78;;;5.08;85.21
62548;BME280;48602;45.192;5.722;2022-11-27T03:24:20;100384.66;;;5.06;85.45
62548;BME280;48602;45.192;5.722;2022-11-27T03:26:47;100382.91;;;5.03;85.57
62548;BME280;48602;45.192;5.722;2022-11-27T03:29:24;100386.41;;;4.99;85.32
62548;BME280;48602;45.192;5.722;2022-11-27T03:31:51;100392.47;;;4.97;85.24
62548;BME280;48602;45.192;5.722;2022-11-27T03:34:17;100394.19;;;4.93;85.23
62548;BME280;48602;45.192;5.722;2022-11-27T03:36:43;100394.19;;;4.91;85.43
62548;BME280;48602;45.192;5.722;2022-11-27T03:39:09;100396.78;;;4.88;85.39
62548;BME280;48602;45.192;5.722;2022-11-27T03:57:59;100387.19;;;4.78;85.90
62548;BME280;48602;45.192;5.722;2022-11-27T04:00:29;100390.66;;;4.77;86.28
62548;BME280;48602;45.192;5.722;2022-11-27T04:02:56;100394.13;;;4.75;85.76
62548;BME280;48602;45.192;5.722;2022-11-27T04:05:21;100397.59;;;4.72;85.48
62548;BME280;48602;45.192;5.722;2022-11-27T04:07:46;100398.47;;;4.70;85.71
62548;BME280;48602;45.192;5.722;2022-11-27T04:10:12;100396.72;;;4.70;85.88
62548;BME280;48602;45.192;5.722;2022-11-27T04:12:37;100399.34;;;4.72;85.96
62548;BME280;48602;45.192;5.722;2022-11-27T04:15:03;100393.25;;;4.71;85.94
62548;BME280;48602;45.192;5.722;2022-11-27T04:17:29;100393.25;;;4.70;85.69
62548;BME280;48602;45.192;5.722;2022-11-27T04:19:55;100391.50;;;4.70;85.75
62548;BME280;48602;45.192;5.722;2022-11-27T04:22:20;100377.59;;;4.68;85.92
62548;BME280;48602;45.192;5.722;2022-11-27T04:24:46;100370.59;;;4.64;85.87
62548;BME280;48602;45.192;5.722;2022-11-27T04:27:11;100372.34;;;4.64;86.02
62548;BME280;48602;45.192;5.722;2022-11-27T04:29:37;100373.19;;;4.61;86.07
62548;BME280;48602;45.192;5.722;2022-11-27T04:32:03;100369.72;;;4.61;85.96
62548;BME280;48602;45.192;5.722;2022-11-27T04:34:28;100367.06;;;4.56;86.03
62548;BME280;48602;45.192;5.722;2022-11-27T04:36:54;100367.06;;;4.53;85.85
62548;BME280;48602;45.192;5.722;2022-11-27T04:39:19;100374.91;;;4.51;86.02
62548;BME280;48602;45.192;5.722;2022-11-27T04:41:44;100374.03;;;4.49;85.98
62548;BME280;48602;45.192;5.722;2022-11-27T04:44:10;100375.75;;;4.47;85.95
62548;BME280;48602;45.192;5.722;2022-11-27T04:46:36;100369.66;;;4.45;86.09
62548;BME280;48602;45.192;5.722;2022-11-27T04:49:01;100370.53;;;4.46;86.38
62548;BME280;48602;45.192;5.722;2022-11-27T04:51:27;100374.88;;;4.45;86.46
62548;BME280;48602;45.192;5.722;2022-11-27T04:53:52;100380.09;;;4.44;86.49
62548;BME280;48602;45.192;5.722;2022-11-27T04:56:18;100379.22;;;4.45;86.59
62548;BME280;48602;45.192;5.722;2022-11-27T04:58:43;100380.94;;;4.43;86.60
62548;BME280;48602;45.192;5.722;2022-11-27T05:01:08;100377.47;;;4.42;86.63
62548;BME280;48602;45.192;5.722;2022-11-27T05:03:34;100382.69;;;4.44;86.67
62548;BME280;48602;45.192;5.722;2022-11-27T05:06:00;100380.94;;;4.43;86.73
62548;BME280;48602;45.192;5.722;2022-11-27T05:08:28;100379.22;;;4.43;86.65
62548;BME280;48602;45.192;5.722;2022-11-27T05:11:09;100380.06;;;4.41;86.69
62548;BME280;48602;45.192;5.722;2022-11-27T05:13:35;100387.03;;;4.40;86.59
62548;BME280;48602;45.192;5.722;2022-11-27T05:16:01;100391.38;;;4.40;86.71
62548;BME280;48602;45.192;5.722;2022-11-27T05:18:27;100393.97;;;4.38;86.88
62548;BME280;48602;45.192;5.722;2022-11-27T05:21:01;100401.81;;;4.40;86.94
62548;BME280;48602;45.192;5.722;2022-11-27T05:23:27;100406.16;;;4.41;87.11
62548;BME280;48602;45.192;5.722;2022-11-27T05:25:53;100401.81;;;4.40;86.88
62548;BME280;48602;45.192;5.722;2022-11-27T05:28:19;100401.81;;;4.38;86.86
62548;BME280;48602;45.192;5.722;2022-11-27T05:30:45;100406.16;;;4.35;86.65
62548;BME280;48602;45.192;5.722;2022-11-27T05:33:11;100400.91;;;4.32;86.76
62548;BME280;48602;45.192;5.722;2022-11-27T05:35:36;100400.03;;;4.31;86.79
62548;BME280;48602;45.192;5.722;2022-11-27T05:38:02;100398.28;;;4.30;86.79
62548;BME280;48602;45.192;5.722;2022-11-27T05:40:27;100402.63;;;4.27;86.74
62548;BME280;48602;45.192;5.722;2022-11-27T05:42:53;100395.63;;;4.24;86.65
62548;BME280;48602;45.192;5.722;2022-11-27T05:45:18;100405.19;;;4.20;86.56
62548;BME280;48602;45.192;5.722;2022-11-27T05:47:44;100391.25;;;4.15;86.77
62548;BME280;48602;45.192;5.722;2022-11-27T05:50:09;100401.69;;;4.15;86.67
62548;BME280;48602;45.192;5.722;2022-11-27T05:52:35;100406.00;;;4.12;86.46
62548;BME280;48602;45.192;5.722;2022-11-27T05:55:00;100405.13;;;4.11;86.35
62548;BME280;48602;45.192;5.722;2022-11-27T05:57:25;100397.28;;;4.08;86.03
62548;BME280;48602;45.192;5.722;2022-11-27T05:59:52;100396.38;;;4.05;86.12
62548;BME280;48602;45.192;5.722;2022-11-27T06:02:17;100393.78;;;4.02;85.95
62548;BME280;48602;45.192;5.722;2022-11-27T06:04:43;100385.91;;;3.97;86.34
62548;BME280;48602;45.192;5.722;2022-11-27T06:07:08;100370.22;;;3.94;86.04
62548;BME280;48602;45.192;5.722;2022-11-27T06:09:36;100371.94;;;3.91;86.50
62548;BME280;48602;45.192;5.722;2022-11-27T06:12:01;100360.59;;;3.87;86.02
62548;BME280;48602;45.192;5.722;2022-11-27T06:14:27;100359.75;;;3.85;86.15
62548;BME280;48602;45.192;5.722;2022-11-27T06:16:52;100366.66;;;3.81;86.45
62548;BME280;48602;45.192;5.722;2022-11-27T06:19:18;100363.19;;;3.79;86.40
62548;BME280;48602;45.192;5.722;2022-11-27T06:21:43;100363.16;;;3.78;86.68
62548;BME280;48602;45.192;5.722;2022-11-27T06:24:10;100355.31;;;3.76;86.80
62548;BME280;48602;45.192;5.722;2022-11-27T06:26:36;100354.44;;;3.76;86.79
62548;BME280;48602;45.192;5.722;2022-11-27T06:29:01;100359.66;;;3.74;86.90
62548;BME280;48602;45.192;5.722;2022-11-27T06:31:29;100361.38;;;3.74;86.90
62548;BME280;48602;45.192;5.722;2022-11-27T06:33:55;100364.00;;;3.74;86.90
62548;BME280;48602;45.192;5.722;2022-11-27T06:36:23;100357.88;;;3.72;86.97
62548;BME280;48602;45.192;5.722;2022-11-27T06:38:49;100346.59;;;3.71;87.12
62548;BME280;48602;45.192;5.722;2022-11-27T06:41:16;100348.31;;;3.71;87.23
62548;BME280;48602;45.192;5.722;2022-11-27T06:43:42;100353.53;;;3.69;86.91
62548;BME280;48602;45.192;5.722;2022-11-27T06:46:12;100350.06;;;3.67;87.17
62548;BME280;48602;45.192;5.722;2022-11-27T06:48:39;100347.44;;;3.67;86.97
62548;BME280;48602;45.192;5.722;2022-11-27T06:51:06;100350.06;;;3.67;87.01
62548;BME280;48602;45.192;5.722;2022-11-27T06:53:34;100346.56;;;3.67;87.00
62548;BME280;48602;45.192;5.722;2022-11-27T06:56:04;100350.91;;;3.66;86.94
62548;BME280;48602;45.192;5.722;2022-11-27T06:58:30;100343.97;;;3.67;87.17
62548;BME280;48602;45.192;5.722;2022-11-27T07:00:57;100354.41;;;3.70;87.06
62548;BME280;48602;45.192;5.722;2022-11-27T07:03:23;100350.94;;;3.72;86.79
62548;BME280;48602;45.192;5.722;2022-11-27T07:05:48;100347.47;;;3.73;86.92
62548;BME280;48602;45.192;5.722;2022-11-27T07:08:14;100348.38;;;3.75;87.12
62548;BME280;48602;45.192;5.722;2022-11-27T07:10:39;100355.34;;;3.79;87.20
62548;BME280;48602;45.192;5.722;2022-11-27T07:13:05;100352.78;;;3.84;87.15
62548;BME280;48602;45.192;5.722;2022-11-27T07:15:31;100349.28;;;3.86;86.84
62548;BME280;48602;45.192;5.722;2022-11-27T07:17:56;100351.03;;;3.88;87.03
62548;BME280;48602;45.192;5.722;2022-11-27T07:20:22;100350.22;;;3.92;87.01
62548;BME280;48602;45.192;5.722;2022-11-27T07:22:47;100358.94;;;3.97;86.69
62548;BME280;48602;45.192;5.722;2022-11-27T07:25:13;100353.75;;;4.01;86.74
62548;BME280;48602;45.192;5.722;2022-11-27T07:27:39;100351.16;;;4.04;86.47
62548;BME280;48602;45.192;5.722;2022-11-27T07:30:05;100352.03;;;4.06;86.62
62548;BME280;48602;45.192;5.722;2022-11-27T07:32:31;100353.81;;;4.10;86.40
62548;BME280;48602;45.192;5.722;2022-11-27T07:34:56;100343.38;;;4.13;86.45
62548;BME280;48602;45.192;5.722;2022-11-27T07:37:21;100341.69;;;4.17;86.00
62548;BME280;48602;45.192;5.722;2022-11-27T07:39:47;100342.53;;;4.20;86.22
62548;BME280;48602;45.192;5.722;2022-11-27T07:42:12;100343.41;;;4.22;85.80
62548;BME280;48602;45.192;5.722;2022-11-27T07:44:37;100333.00;;;4.26;85.46
62548;BME280;48602;45.192;5.722;2022-11-27T07:47:03;100330.41;;;4.27;85.42
62548;BME280;48602;45.192;5.722;2022-11-27T07:49:28;100325.19;;;4.29;85.35
62548;BME280;48602;45.192;5.722;2022-11-27T07:51:54;100333.91;;;4.31;85.15
62548;BME280;48602;45.192;5.722;2022-11-27T07:54:19;100327.81;;;4.32;85.05
62548;BME280;48602;45.192;5.722;2022-11-27T07:56:44;100327.81;;;4.36;85.01
62548;BME280;48602;45.192;5.722;2022-11-27T07:59:10;100338.28;;;4.39;84.74
62548;BME280;48602;45.192;5.722;2022-11-27T08:01:35;100338.28;;;4.42;84.45
62548;BME280;48602;45.192;5.722;2022-11-27T08:04:00;100329.59;;;4.45;84.47
62548;BME280;48602;45.192;5.722;2022-11-27T08:06:27;100326.16;;;4.47;84.44
62548;BME280;48602;45.192;5.722;2022-11-27T08:08:53;100328.78;;;4.52;84.35
62548;BME280;48602;45.192;5.722;2022-11-27T08:13:46;100318.34;;;4.60;84.01
62548;BME280;48602;45.192;5.722;2022-11-27T08:16:11;100309.66;;;4.65;84.02
62548;BME280;48602;45.192;5.722;2022-11-27T08:18:37;100312.28;;;4.71;84.00
62548;BME280;48602;45.192;5.722;2022-11-27T08:21:02;100312.28;;;4.74;83.93
62548;BME280;48602;45.192;5.722;2022-11-27T08:23:28;100312.31;;;4.79;83.61
62548;BME280;48602;45.192;5.722;2022-11-27T08:25:53;100310.59;;;4.82;83.78
62548;BME280;48602;45.192;5.722;2022-11-27T08:28:18;100317.53;;;4.86;83.41
62548;BME280;48602;45.192;5.722;2022-11-27T08:30:44;100314.06;;;4.90;83.44
62548;BME280;48602;45.192;5.722;2022-11-27T08:33:12;100310.59;;;4.95;83.03
62548;BME280;48602;45.192;5.722;2022-11-27T08:35:37;100307.13;;;4.97;83.29
62548;BME280;48602;45.192;5.722;2022-11-27T08:38:03;100304.53;;;5.02;82.99
62548;BME280;48602;45.192;5.722;2022-11-27T08:40:28;100310.59;;;5.07;83.14
62548;BME280;48602;45.192;5.722;2022-11-27T08:42:53;100300.16;;;5.11;82.77
62548;BME280;48602;45.192;5.722;2022-11-27T08:45:19;100296.69;;;5.15;82.68
62548;BME280;48602;45.192;5.722;2022-11-27T08:47:44;100292.31;;;5.20;82.56
62548;BME280;48602;45.192;5.722;2022-11-27T08:50:09;100288.84;;;5.26;82.17
62548;BME280;48602;45.192;5.722;2022-11-27T08:52:35;100285.34;;;5.32;82.32
62548;BME280;48602;45.192;5.722;2022-11-27T08:55:00;100281.84;;;5.40;82.26
62548;BME280;48602;45.192;5.722;2022-11-27T08:57:26;100279.25;;;5.45;81.91
62548;BME280;48602;45.192;5.722;2022-11-27T08:59:51;100273.16;;;5.52;81.54
62548;BME280;48602;45.192;5.722;2022-11-27T09:02:17;100265.28;;;5.59;81.47
62548;BME280;48602;45.192;5.722;2022-11-27T09:04:42;100260.03;;;5.69;81.38
62548;BME280;48602;45.192;5.722;2022-11-27T09:07:07;100253.91;;;5.74;81.42
62548;BME280;48602;45.192;5.722;2022-11-27T09:09:35;100254.78;;;5.78;81.03
62548;BME280;48602;45.192;5.722;2022-11-27T09:12:01;100251.28;;;5.83;80.89
62548;BME280;48602;45.192;5.722;2022-11-27T09:14:27;100246.91;;;5.88;80.71
62548;BME280;48602;45.192;5.722;2022-11-27T09:16:52;100252.13;;;5.94;80.26
62548;BME280;48602;45.192;5.722;2022-11-27T09:19:17;100252.13;;;5.99;80.20
62548;BME280;48602;45.192;5.722;2022-11-27T09:21:43;100246.84;;;6.07;79.87
62548;BME280;48602;45.192;5.722;2022-11-27T09:24:09;100247.72;;;6.15;79.78
62548;BME280;48602;45.192;5.722;2022-11-27T09:26:34;100242.41;;;6.22;79.83
62548;BME280;48602;45.192;5.722;2022-11-27T09:29:00;100238.91;;;6.29;79.68
62548;BME280;48602;45.192;5.722;2022-11-27T09:31:26;100233.59;;;6.40;79.61
62548;BME280;48602;45.192;5.722;2022-11-27T09:33:51;100237.94;;;6.52;79.24
62548;BME280;48602;45.192;5.722;2022-11-27T09:36:20;100238.75;;;6.58;78.99
62548;BME280;48602;45.192;5.722;2022-11-27T09:38:46;100237.81;;;6.69;78.87
62548;BME280;48602;45.192;5.722;2022-11-27T09:44:23;100238.53;;;6.87;78.04
62548;BME280;48602;45.192;5.722;2022-11-27T09:46:50;100235.88;;;6.95;77.75
62548;BME280;48602;45.192;5.722;2022-11-27T09:49:21;100234.03;;;7.05;77.91
62548;BME280;48602;45.192;5.722;2022-11-27T09:51:54;100229.59;;;7.16;77.80
62548;BME280;48602;45.192;5.722;2022-11-27T09:54:46;100231.25;;;7.24;77.20
62548;BME280;48602;45.192;5.722;2022-11-27T09:57:15;100222.47;;;7.31;76.35
62548;BME280;48602;45.192;5.722;2022-11-27T09:59:51;100222.38;;;7.39;76.60
62548;BME280;48602;45.192;5.722;2022-11-27T10:02:25;100216.19;;;7.46;75.99
62548;BME280;48602;45.192;5.722;2022-11-27T10:04:52;100217.84;;;7.55;75.64
62548;BME280;48602;45.192;5.722;2022-11-27T10:16:02;100182.31;;;8.03;73.81
62548;BME280;48602;45.192;5.722;2022-11-27T10:18:52;100186.50;;;8.16;73.11
62548;BME280;48602;45.192;5.722;2022-11-27T10:26:48;100175.59;;;8.47;72.19
62548;BME280;48602;45.192;5.722;2022-11-27T10:31:54;100159.56;;;8.63;71.79
62548;BME280;48602;45.192;5.722;2022-11-27T10:37:22;100133.03;;;8.79;71.73
62548;BME280;48602;45.192;5.722;2022-11-27T10:39:56;100127.69;;;8.85;71.35
62548;BME280;48602;45.192;5.722;2022-11-27T10:42:31;100111.78;;;8.89;71.32
62548;BME280;48602;45.192;5.722;2022-11-27T10:45:28;100110.81;;;8.96;71.83
62548;BME280;48602;45.192;5.722;2022-11-27T10:47:55;100115.13;;;9.00;71.41
62548;BME280;48602;45.192;5.722;2022-11-27T10:50:21;100106.31;;;9.03;71.20
62548;BME280;48602;45.192;5.722;2022-11-27T10:52:59;100100.09;;;9.05;71.19
62548;BME280;48602;45.192;5.722;2022-11-27T10:58:31;100096.53;;;9.09;69.73
62548;BME280;48602;45.192;5.722;2022-11-27T11:01:05;100103.59;;;9.07;69.19
62548;BME280;48602;45.192;5.722;2022-11-27T11:03:31;100090.50;;;9.04;68.50
62548;BME280;48602;45.192;5.722;2022-11-27T11:06:00;100081.84;;;8.99;69.02
62548;BME280;48602;45.192;5.722;2022-11-27T11:08:26;100077.56;;;8.92;68.92
62548;BME280;48602;45.192;5.722;2022-11-27T11:11:01;100065.41;;;8.87;68.82
62548;BME280;48602;45.192;5.722;2022-11-27T11:13:28;100067.19;;;8.86;68.53
62548;BME280;48602;45.192;5.722;2022-11-27T11:15:57;100061.06;;;8.86;68.47
62548;BME280;48602;45.192;5.722;2022-11-27T11:18:29;100059.28;;;8.86;68.41
62548;BME280;48602;45.192;5.722;2022-11-27T11:21:05;100046.13;;;8.88;68.47
62548;BME280;48602;45.192;5.722;2022-11-27T11:23:37;100034.66;;;8.89;68.64
62548;BME280;48602;45.192;5.722;2022-11-27T11:26:25;100029.34;;;8.92;68.71
62548;BME280;48602;45.192;5.722;2022-11-27T11:28:55;100018.75;;;8.96;68.27
62548;BME280;48602;45.192;5.722;2022-11-27T11:31:30;100015.16;;;9.02;68.27
62548;BME280;48602;45.192;5.722;2022-11-27T11:34:03;100014.19;;;9.06;68.38
62548;BME280;48602;45.192;5.722;2022-11-27T11:36:30;100008.88;;;9.09;67.90
62548;BME280;48602;45.192;5.722;2022-11-27T11:38:56;100000.06;;;9.10;67.37
62548;BME280;48602;45.192;5.722;2022-11-27T11:41:22;99989.53;;;9.12;67.13
62548;BME280;48602;45.192;5.722;2022-11-27T11:44:00;99985.91;;;9.17;66.91
62548;BME280;48602;45.192;5.722;2022-11-27T11:46:28;99991.94;;;9.22;66.51
62548;BME280;48602;45.192;5.722;2022-11-27T11:49:18;99983.06;;;9.26;66.05
62548;BME280;48602;45.192;5.722;2022-11-27T11:54:38;99975.09;;;9.31;65.71
62548;BME280;48602;45.192;5.722;2022-11-27T12:05:24;99973.06;;;9.43;65.53
62548;BME280;48602;45.192;5.722;2022-11-27T12:08:15;99965.09;;;9.47;64.95
62548;BME280;48602;45.192;5.722;2022-11-27T12:11:08;99959.75;;;9.51;64.13
62548;BME280;48602;45.192;5.722;2022-11-27T12:16:45;99961.19;;;9.64;64.25
62548;BME280;48602;45.192;5.722;2022-11-27T12:22:30;99952.84;;;9.84;63.52
62548;BME280;48602;45.192;5.722;2022-11-27T12:30:29;99915.25;;;10.11;62.62
62548;BME280;48602;45.192;5.722;2022-11-27T12:36:13;99904.41;;;10.25;62.01
62548;BME280;48602;45.192;5.722;2022-11-27T12:42:19;99889.22;;;10.35;62.15
62548;BME280;48602;45.192;5.722;2022-11-27T12:47:22;99876.84;;;10.38;61.04
62548;BME280;48602;45.192;5.722;2022-11-27T12:50:31;99869.72;;;10.40;61.42
62548;BME280;48602;45.192;5.722;2022-11-27T12:52:59;99854.72;;;10.42;60.89
62548;BME280;48602;45.192;5.722;2022-11-27T12:55:29;99848.50;;;10.45;61.43
62548;BME280;48602;45.192;5.722;2022-11-27T12:58:08;99844.97;;;10.46;61.82
62548;BME280;48602;45.192;5.722;2022-11-27T13:00:40;99839.69;;;10.46;61.91
62548;BME280;48602;45.192;5.722;2022-11-27T13:03:14;99825.63;;;10.47;62.17
62548;BME280;48602;45.192;5.722;2022-11-27T13:11:13;99809.47;;;10.58;62.04
62548;BME280;48602;45.192;5.722;2022-11-27T13:16:41;99804.97;;;10.61;61.75
62548;BME280;48602;45.192;5.722;2022-11-27T13:21:45;99804.06;;;10.62;61.18
62548;BME280;48602;45.192;5.722;2022-11-27T13:24:12;99799.72;;;10.61;59.56
62548;BME280;48602;45.192;5.722;2022-11-27T13:31:52;99789.41;;;10.54;59.17
62548;BME280;48602;45.192;5.722;2022-11-27T13:34:22;99788.50;;;10.55;59.09
62548;BME280;48602;45.192;5.722;2022-11-27T13:37:01;99782.41;;;10.53;59.37
62548;BME280;48602;45.192;5.722;2022-11-27T13:42:14;99767.41;;;10.55;59.03
62548;BME280;48602;45.192;5.722;2022-11-27T13:44:44;99759.59;;;10.52;59.26
62548;BME280;48602;45.192;5.722;2022-11-27T13:47:18;99762.25;;;10.50;59.22
62548;BME280;48602;45.192;5.722;2022-11-27T13:49:43;99757.03;;;10.48;59.60
62548;BME280;48602;45.192;5.722;2022-11-27T13:52:18;99764.13;;;10.46;59.89
62548;BME280;48602;45.192;5.722;2022-11-27T13:54:59;99759.72;;;10.47;60.21
62548;BME280;48602;45.192;5.722;2022-11-27T13:57:27;99760.56;;;10.47;60.28
62548;BME280;48602;45.192;5.722;2022-11-27T14:00:00;99763.13;;;10.51;60.74
62548;BME280;48602;45.192;5.722;2022-11-27T14:02:48;99766.72;;;10.48;61.43
62548;BME280;48602;45.192;5.722;2022-11-27T14:05:17;99759.72;;;10.47;61.90
62548;BME280;48602;45.192;5.722;2022-11-27T14:07:47;99754.41;;;10.48;62.05
62548;BME280;48602;45.192;5.722;2022-11-27T14:10:22;99748.31;;;10.46;62.09
62548;BME280;48602;45.192;5.722;2022-11-27T14:12:55;99744.75;;;10.47;62.27
62548;BME280;48602;45.192;5.722;2022-11-27T14:15:26;99749.16;;;10.47;62.43
62548;BME280;48602;45.192;5.722;2022-11-27T14:18:06;99742.13;;;10.47;62.72
62548;BME280;48602;45.192;5.722;2022-11-27T14:23:49;99745.78;;;10.42;63.05
62548;BME280;48602;45.192;5.722;2022-11-27T14:28:42;99738.09;;;10.36;63.41
62548;BME280;48602;45.192;5.722;2022-11-27T14:31:29;99738.13;;;10.34;63.47
62548;BME280;48602;45.192;5.722;2022-11-27T14:33:56;99726.72;;;10.34;63.64
62548;BME280;48602;45.192;5.722;2022-11-27T14:38:47;99728.56;;;10.30;63.74
62548;BME280;48602;45.192;5.722;2022-11-27T14:41:22;99721.59;;;10.29;63.85
62548;BME280;48602;45.192;5.722;2022-11-27T14:44:13;99725.13;;;10.28;63.41
62548;BME280;48602;45.192;5.722;2022-11-27T14:46:39;99724.25;;;10.28;63.40
62548;BME280;48602;45.192;5.722;2022-11-27T14:49:05;99730.53;;;10.24;63.31
62548;BME280;48602;45.192;5.722;2022-11-27T14:51:33;99735.00;;;10.22;63.28
62548;BME280;48602;45.192;5.722;2022-11-27T14:54:02;99728.03;;;10.19;63.45
62548;BME280;48602;45.192;5.722;2022-11-27T14:56:35;99721.03;;;10.17;63.59
62548;BME280;48602;45.192;5.722;2022-11-27T14:59:03;99720.25;;;10.13;63.74
62548;BME280;48602;45.192;5.722;2022-11-27T15:01:32;99709.81;;;10.10;63.78
62548;BME280;48602;45.192;5.722;2022-11-27T15:04:00;99708.97;;;10.08;63.80
62548;BME280;48602;45.192;5.722;2022-11-27T15:06:33;99713.53;;;10.03;63.66
62548;BME280;48602;45.192;5.722;2022-11-27T15:09:00;99715.41;;;9.99;63.79